Flight Track Log - Related Links

Times and Time Zones

All times are in EDT time to prevent confusion due to time zone crossing. See the CTL22 flight status page for this flight to view local times or setup timezone preferences in your user account.

Time Position Orientation Groundspeed Altitude Reporting Facility
EDT Latitude Longitude Course Direction KTS MPH feet Rate Location/Type
Wed 09:36:58 PM 41.7733 -82.0561 304° West 158 182 6,000  Level Cleveland Center
Wed 09:37:58 PM 41.7956 -82.1011 304° West 163 188 6,000 50 Level Cleveland Center
Wed 09:38:58 PM 41.8219 -82.1575 302° West 163 188 6,100 50 Climbing Cleveland Center
Wed 09:39:58 PM 41.8422 -82.2081 298° West 163 188 6,100 -50 Level Cleveland Center
Wed 09:40:58 PM 41.8644 -82.2589 300° West 163 188 6,000 -50 Descending Cleveland Center
Wed 09:41:58 PM 41.8822 -82.3122 294° West 163 188 6,000  Level Cleveland Center
Wed 09:42:58 PM 41.9022 -82.3658 297° West 163 188 6,000  Level Cleveland Center
Wed 09:43:58 PM 41.9222 -82.4167 298° West 158 182 6,000  Level Cleveland Center
Wed 09:44:58 PM 41.9403 -82.4703 294° West 158 182 6,000  Level Cleveland Center
Wed 09:45:58 PM 41.9581 -82.5239 294° West 158 182 6,000  Level Cleveland Center
Wed 09:46:58 PM 41.9800 -82.5775 299° West 158 182 6,000  Level Cleveland Center
Wed 09:47:58 PM 42.0022 -82.6286 300° West 158 182 6,000  Level Cleveland Center
Wed 09:48:58 PM 42.0219 -82.6822 296° West 158 182 6,000  Level Cleveland Center
Wed 09:49:58 PM 42.0419 -82.7361 297° West 158 182 6,000  Level Cleveland Center
Wed 09:50:58 PM 42.0597 -82.7897 294° West 158 182 6,000  Level Cleveland Center
Wed 09:51:58 PM 42.0753 -82.8464 290° West 158 182 6,000  Level Cleveland Center
Wed 09:52:58 PM 42.0950 -82.9031 295° West 158 182 6,000  Level Cleveland Center
Wed 09:53:58 PM 42.1106 -82.9567 291° West 158 182 6,000  Level Cleveland Center
Wed 09:54:28 PM 42.1225 -82.9822 302° West 158 182 6,000  Level Cleveland Center
Wed 09:54:58 PM 42.1303 -83.0078 292° West 158 182 6,000  Level Cleveland Center
Wed 09:55:29 PM 42.1422 -83.0392 297° West 158 182 6,000  Level Cleveland Center
Wed 09:56:29 PM 42.1597 -83.0903 295° West 163 188 6,000  Level Cleveland Center
Wed 09:57:36 PM 42.1814 -83.1556 294° West 160 184 6,000  Level Cleveland Center
Wed 09:58:31 PM 42.1947 -83.2008 292° West 158 182 6,000  Level Cleveland Center
Wed 09:59:31 PM 42.2142 -83.2606 294° West 160 184 6,000  Level Cleveland Center
Wed 10:00:32 PM 42.2339 -83.3119 297° West 159 183 6,000  Level Cleveland Center
Wed 10:01:33 PM 42.2514 -83.3686 293° West 159 183 6,000  Level Cleveland Center
Wed 10:02:34 PM 42.2708 -83.4231 296° West 162 186 6,000  Level Cleveland Center
Wed 10:03:34 PM 42.2883 -83.4769 294° West 162 186 6,000  Level Cleveland Center
Wed 10:04:35 PM 42.3056 -83.5342 292° West 159 183 6,000  Level Cleveland Center
Wed 10:05:29 PM 42.3231 -83.5825 296° West 158 182 6,000  Level Cleveland Center
Wed 10:06:36 PM 42.3422 -83.6453 292° West 156 180 6,000  Level Cleveland Center
Wed 10:07:31 PM 42.3556 -83.6908 292° West 158 182 6,000  Level Cleveland Center
Wed 10:08:37 PM 42.3747 -83.7536 292° West 159 183 6,000 30 Level Cleveland Center
Wed 10:10:51 PM 42.4147 -83.8747 294° West 161 185 6,100 31 Climbing Chicago Center
Wed 10:11:53 PM 42.4303 -83.9278 292° West 160 184 6,100  Level Chicago Center
Wed 10:12:54 PM 42.4442 -83.9828 289° West 154 177 6,100  Level Chicago Center
Wed 10:13:56 PM 42.4594 -84.0381 291° West 156 180 6,100  Level Chicago Center
Wed 10:14:57 PM 42.4781 -84.0919 295° West 157 181 6,100 -49 Level Chicago Center
Wed 10:15:59 PM 42.5003 -84.1572 295° West 157 181 6,000 -49 Descending Chicago Center
Wed 10:17:00 PM 42.5161 -84.2122 291° West 157 181 6,000 -49 Level Chicago Center
Wed 10:18:02 PM 42.5331 -84.2669 293° West 157 181 5,900 -49 Descending Chicago Center
Wed 10:19:03 PM 42.5503 -84.3208 293° West 157 181 5,900 49 Level Chicago Center
Wed 10:20:05 PM 42.5647 -84.3758 290° West 156 180 6,000 49 Climbing Chicago Center
Wed 10:21:06 PM 42.5803 -84.4306 291° West 156 180 6,000  Level Chicago Center
Wed 10:22:07 PM 42.5958 -84.4856 291° West 157 181 6,000  Level Chicago Center
Wed 10:23:09 PM 42.6094 -84.5414 288° West 156 180 6,000  Level Chicago Center
Wed 10:24:10 PM 42.6256 -84.5950 292° West 155 178 6,000  Level Chicago Center
Wed 10:25:12 PM 42.6444 -84.6606 291° West 155 178 6,000  Level Chicago Center
Wed 10:26:13 PM 42.6594 -84.7161 290° West 156 180 6,000  Level Chicago Center
Wed 10:27:14 PM 42.6750 -84.7719 291° West 158 182 6,000  Level Chicago Center
Wed 10:28:16 PM 42.6900 -84.8275 290° West 158 182 6,000  Level Chicago Center
Wed 10:29:17 PM 42.7044 -84.8831 290° West 156 180 6,000  Level Chicago Center
Wed 10:30:18 PM 42.7192 -84.9381 290° West 156 180 6,000  Level Chicago Center
Wed 10:31:20 PM 42.7350 -84.9922 292° West 156 180 6,000  Level Chicago Center
Wed 10:32:21 PM 42.7517 -85.0472 292° West 157 181 6,000 -246 Level Chicago Center
Wed 10:33:22 PM 42.7689 -85.1044 292° West 161 185 5,500 -585 Descending Chicago Center
Wed 10:34:24 PM 42.7875 -85.1783 289° West 170 196 4,800 -634 Descending Chicago Center
Wed 10:35:25 PM 42.8028 -85.2389 289° West 171 197 4,200 -639 Descending Chicago Center
Wed 10:36:26 PM 42.8172 -85.3031 287° West 174 200 3,500 -683 Descending Chicago Center
Wed 10:37:28 PM 42.8356 -85.3633 293° West 174 200 2,800 -683 Descending Chicago Center
Wed 10:38:29 PM 42.8558 -85.4206 296° West 172 198 2,100 -738 Descending Chicago Center
Wed 10:39:30 PM 42.8744 -85.4750 295° West 166 191 1,300 -585 Descending Chicago Center
Wed 10:40:32 PM 42.8831 -85.5192 285° West 139 160 900 -387 Descending Chicago Center
Wed 10:42:00 PM 42.8808 -85.5228 270° West  Level Estimated

Login

Don't have an account? Register now (free) for customized features, flight alerts, and more!